createdAt,value
2022-09-30T00:01:46.066Z,71.05
2022-09-30T00:04:23.186Z,70.71
2022-09-30T00:06:53.572Z,70.38
2022-09-30T00:09:21.672Z,70.18
2022-09-30T00:11:48.319Z,70.12
2022-09-30T00:14:20.398Z,70.14
2022-09-30T00:16:47.114Z,70.10
2022-09-30T00:19:13.999Z,70.04
2022-09-30T00:21:41.224Z,70.33
2022-09-30T00:24:07.822Z,70.04
2022-09-30T00:26:35.298Z,69.60
2022-09-30T00:29:05.737Z,69.64
2022-09-30T00:31:35.325Z,69.20
2022-09-30T00:34:11.115Z,68.59
2022-09-30T00:36:58.229Z,68.58
2022-09-30T00:39:27.600Z,69.86
2022-09-30T00:42:01.586Z,69.55
2022-09-30T00:44:51.302Z,68.98
2022-09-30T00:47:49.061Z,68.54
2022-09-30T00:50:21.267Z,69.31
2022-09-30T00:53:03.348Z,69.08
2022-09-30T00:55:44.701Z,68.90
2022-09-30T00:58:25.175Z,68.04
2022-09-30T01:01:01.901Z,67.41
2022-09-30T01:03:38.548Z,67.51
2022-09-30T01:06:05.543Z,67.47
2022-09-30T01:08:37.862Z,67.60
2022-09-30T01:11:08.215Z,67.63
2022-09-30T01:13:39.175Z,67.35
2022-09-30T01:16:48.339Z,67.47
2022-09-30T01:19:53.342Z,67.63
2022-09-30T01:22:45.443Z,67.75
2022-09-30T01:25:47.416Z,67.06
2022-09-30T01:29:05.916Z,67.14
2022-09-30T01:32:00.267Z,67.54
2022-09-30T01:34:56.551Z,67.55
2022-09-30T01:37:52.494Z,67.22
2022-09-30T01:40:37.439Z,67.43
2022-09-30T01:43:42.487Z,67.59
2022-09-30T01:46:34.653Z,68.42
2022-09-30T01:49:20.378Z,67.90
2022-09-30T01:52:08.418Z,67.44
2022-09-30T01:55:16.640Z,67.40
2022-09-30T01:57:48.726Z,68.11
2022-09-30T02:00:15.712Z,68.13
2022-09-30T02:02:54.234Z,67.42
2022-09-30T02:05:37.761Z,67.50
2022-09-30T02:08:17.218Z,67.05
2022-09-30T02:11:08.075Z,66.97
2022-09-30T02:13:56.721Z,67.35
2022-09-30T02:16:35.269Z,67.89
2022-09-30T02:19:13.337Z,68.33
2022-09-30T02:21:47.844Z,68.23
2022-09-30T02:24:20.014Z,68.12
2022-09-30T02:26:50.355Z,67.36
2022-09-30T02:29:24.871Z,67.19
2022-09-30T02:31:59.409Z,67.24
2022-09-30T02:34:37.812Z,67.25
2022-09-30T02:37:21.988Z,67.78
2022-09-30T02:40:10.593Z,69.13
2022-09-30T02:42:38.978Z,68.96
2022-09-30T02:45:16.284Z,69.36
2022-09-30T02:48:02.704Z,69.43
2022-09-30T02:50:52.248Z,69.16
2022-09-30T02:53:41.205Z,69.30
2022-09-30T02:56:27.283Z,69.82
2022-09-30T02:58:57.030Z,70.01
2022-09-30T03:01:25.168Z,69.87
2022-09-30T03:04:09.197Z,69.81
2022-09-30T03:06:38.175Z,70.02
2022-09-30T03:09:05.167Z,69.70
2022-09-30T03:11:32.520Z,69.13
2022-09-30T03:14:17.512Z,68.91
2022-09-30T03:17:39.021Z,68.85
2022-09-30T03:20:31.051Z,68.57
2022-09-30T03:23:13.603Z,68.88
2022-09-30T03:26:36.397Z,68.88
2022-09-30T03:29:36.456Z,68.90
2022-09-30T03:32:28.723Z,68.53
2022-09-30T03:35:03.913Z,68.55
2022-09-30T03:37:33.859Z,68.29
2022-09-30T03:40:28.448Z,68.09
2022-09-30T03:43:17.240Z,68.02
2022-09-30T03:45:57.350Z,68.16
2022-09-30T03:48:28.851Z,68.43
2022-09-30T03:50:56.978Z,68.16
2022-09-30T03:53:23.679Z,67.73
2022-09-30T03:55:52.776Z,67.15
2022-09-30T03:58:23.273Z,66.75
2022-09-30T04:00:53.371Z,66.87
2022-09-30T04:03:25.492Z,67.52
2022-09-30T04:05:52.018Z,68.23
2022-09-30T04:08:18.592Z,68.46
2022-09-30T04:10:50.626Z,68.60
2022-09-30T04:13:17.078Z,68.99
2022-09-30T04:15:43.510Z,68.74
2022-09-30T04:18:09.987Z,68.83
2022-09-30T04:20:38.499Z,68.31
2022-09-30T04:23:04.951Z,67.89
2022-09-30T04:25:31.395Z,67.44
2022-09-30T04:27:57.895Z,67.99
2022-09-30T04:30:26.499Z,68.77
2022-09-30T04:32:55.479Z,68.78
2022-09-30T04:35:21.959Z,68.43
2022-09-30T04:37:48.456Z,68.93
2022-09-30T04:40:16.931Z,68.61
2022-09-30T04:42:43.894Z,68.91
2022-09-30T04:45:14.635Z,68.49
2022-09-30T04:47:45.379Z,68.35
2022-09-30T04:50:11.926Z,68.32
2022-09-30T04:52:42.274Z,68.02
2022-09-30T04:55:09.759Z,67.35
2022-09-30T04:57:36.912Z,67.59
2022-09-30T05:00:08.910Z,67.84
2022-09-30T05:02:35.612Z,68.19
2022-09-30T05:05:03.073Z,67.99
2022-09-30T05:07:38.131Z,67.94
2022-09-30T05:10:05.416Z,67.64
2022-09-30T05:12:31.931Z,67.92
2022-09-30T05:14:58.404Z,68.11
2022-09-30T05:17:24.866Z,67.97
2022-09-30T05:19:53.619Z,67.45
2022-09-30T05:22:20.050Z,66.65
2022-09-30T05:24:46.524Z,66.53
2022-09-30T05:27:12.940Z,66.88
2022-09-30T05:29:39.711Z,67.16
2022-09-30T05:32:07.718Z,66.52
2022-09-30T05:34:34.176Z,66.45
2022-09-30T05:37:00.672Z,67.06
2022-09-30T05:39:27.104Z,67.28
2022-09-30T05:41:57.332Z,66.70
2022-09-30T05:44:24.208Z,67.09
2022-09-30T05:46:50.733Z,67.00
2022-09-30T05:49:20.253Z,66.71
2022-09-30T05:51:49.406Z,67.28
2022-09-30T05:54:15.824Z,66.80
2022-09-30T05:56:42.309Z,66.73
2022-09-30T05:59:08.739Z,66.71
2022-09-30T06:01:36.037Z,67.28
2022-09-30T06:04:02.850Z,67.57
2022-09-30T06:06:30.210Z,67.73
2022-09-30T06:08:56.878Z,67.36
2022-09-30T06:11:25.013Z,67.20
2022-09-30T06:13:52.251Z,66.59
2022-09-30T06:16:19.685Z,66.58
2022-09-30T06:18:46.554Z,66.24
2022-09-30T06:21:16.057Z,66.06
2022-09-30T06:23:43.171Z,66.25
2022-09-30T06:26:12.701Z,66.64
2022-09-30T06:28:39.438Z,66.61
2022-09-30T06:31:07.065Z,66.40
2022-09-30T06:33:34.394Z,66.03
2022-09-30T06:36:04.365Z,66.02
2022-09-30T06:38:33.143Z,65.87
2022-09-30T06:41:02.951Z,65.60
2022-09-30T06:43:29.414Z,65.95
2022-09-30T06:46:06.865Z,66.30
2022-09-30T06:48:39.198Z,66.40
2022-09-30T06:51:09.795Z,66.65
2022-09-30T06:53:39.099Z,66.85
2022-09-30T06:56:06.511Z,67.24
2022-09-30T06:58:32.945Z,67.60
2022-09-30T07:01:06.137Z,68.00
2022-09-30T07:03:35.662Z,69.24
2022-09-30T07:06:05.923Z,68.72
2022-09-30T07:08:35.749Z,69.08
2022-09-30T07:11:14.475Z,69.34
2022-09-30T07:13:45.803Z,70.01
2022-09-30T07:16:14.046Z,69.51
2022-09-30T07:18:44.946Z,70.24
2022-09-30T07:21:15.722Z,70.46
2022-09-30T07:23:47.983Z,70.77
2022-09-30T07:26:21.214Z,70.32
2022-09-30T07:28:49.541Z,70.60
2022-09-30T07:31:32.343Z,70.48
2022-09-30T07:34:00.084Z,70.73
2022-09-30T07:36:32.559Z,71.11
2022-09-30T07:39:05.602Z,71.74
2022-09-30T07:41:35.656Z,71.48
2022-09-30T07:44:02.847Z,70.66
2022-09-30T07:46:33.093Z,69.97
2022-09-30T07:49:03.902Z,69.72
2022-09-30T07:51:38.468Z,69.97
2022-09-30T07:54:15.188Z,69.68
2022-09-30T07:57:09.779Z,71.07
2022-09-30T07:59:32.621Z,71.63
2022-09-30T08:01:59.161Z,69.85
2022-09-30T08:04:27.237Z,69.42
2022-09-30T08:06:58.704Z,69.60
2022-09-30T08:09:27.774Z,69.42
2022-09-30T08:11:55.355Z,69.22
2022-09-30T08:14:27.533Z,69.38
2022-09-30T08:16:56.434Z,69.34
2022-09-30T08:19:26.033Z,69.12
2022-09-30T08:21:54.140Z,69.42
2022-09-30T08:24:23.959Z,69.26
2022-09-30T08:26:51.228Z,69.63
2022-09-30T08:29:20.329Z,69.63
2022-09-30T08:31:52.278Z,69.66
2022-09-30T08:34:19.155Z,69.61
2022-09-30T08:36:46.486Z,69.52
2022-09-30T08:39:13.333Z,70.43
2022-09-30T08:42:13.684Z,70.21
2022-09-30T08:44:51.120Z,70.30
2022-09-30T08:47:45.547Z,70.30
2022-09-30T08:50:27.855Z,70.50
2022-09-30T08:53:03.395Z,70.71
2022-09-30T08:55:40.459Z,70.48
2022-09-30T08:58:21.433Z,70.55
2022-09-30T09:00:54.773Z,70.82
2022-09-30T09:03:28.511Z,70.41
2022-09-30T09:06:16.649Z,70.76
2022-09-30T09:09:25.838Z,71.23
2022-09-30T09:12:24.725Z,71.66
2022-09-30T09:14:54.494Z,71.20
2022-09-30T09:17:37.514Z,71.84
2022-09-30T09:20:14.885Z,73.04
2022-09-30T09:22:44.403Z,72.16
2022-09-30T09:25:15.700Z,71.96
2022-09-30T09:27:56.112Z,72.02
2022-09-30T09:30:26.208Z,72.36
2022-09-30T09:32:58.129Z,72.19
2022-09-30T09:35:42.391Z,71.98
2022-09-30T09:38:28.952Z,72.32
2022-09-30T09:41:41.731Z,72.13
2022-09-30T09:44:49.306Z,72.59
2022-09-30T09:47:17.123Z,72.07
2022-09-30T09:49:55.342Z,71.78
2022-09-30T09:52:49.359Z,71.29
2022-09-30T09:55:21.928Z,71.31
2022-09-30T09:58:04.017Z,71.64
2022-09-30T10:00:45.789Z,71.80
2022-09-30T10:03:21.277Z,71.46
2022-09-30T10:06:07.621Z,71.83
2022-09-30T10:08:39.096Z,72.01
2022-09-30T10:11:21.490Z,71.87
2022-09-30T10:13:48.419Z,71.09
2022-09-30T10:16:37.987Z,70.54
2022-09-30T10:19:19.852Z,70.50
2022-09-30T10:21:46.371Z,70.77
2022-09-30T10:24:22.695Z,70.09
2022-09-30T10:26:49.470Z,70.44
2022-09-30T10:29:31.503Z,69.81
2022-09-30T10:32:02.280Z,69.42
2022-09-30T10:34:38.004Z,69.77
2022-09-30T10:37:20.517Z,69.07
2022-09-30T10:40:01.969Z,68.73
2022-09-30T10:42:34.589Z,68.24
2022-09-30T10:45:16.360Z,67.89
2022-09-30T10:47:51.392Z,67.82
2022-09-30T10:50:25.032Z,67.30
2022-09-30T10:53:04.690Z,65.72
2022-09-30T10:55:42.517Z,65.65
2022-09-30T10:58:39.889Z,65.49
2022-09-30T11:01:26.136Z,64.47
2022-09-30T11:04:14.591Z,65.04
2022-09-30T11:06:44.465Z,65.13
2022-09-30T11:09:34.736Z,64.72
2022-09-30T11:12:17.319Z,64.49
2022-09-30T11:15:04.339Z,63.97
2022-09-30T11:17:49.612Z,63.02
2022-09-30T11:20:25.139Z,63.60
2022-09-30T11:23:20.692Z,63.20
2022-09-30T11:26:30.482Z,62.59
2022-09-30T11:29:56.422Z,61.32
2022-09-30T11:32:49.076Z,61.60
2022-09-30T11:35:42.897Z,58.59
2022-09-30T11:38:28.242Z,60.98
2022-09-30T11:41:17.345Z,60.54
2022-09-30T11:44:06.993Z,59.28
2022-09-30T11:46:47.923Z,59.21
2022-09-30T11:49:38.012Z,58.78
2022-09-30T11:52:35.915Z,59.09
2022-09-30T11:55:26.322Z,59.38
2022-09-30T11:58:39.903Z,59.71
2022-09-30T12:01:19.573Z,60.07
2022-09-30T12:03:57.754Z,60.10
2022-09-30T12:07:06.976Z,59.54
2022-09-30T12:09:43.113Z,59.29
2022-09-30T12:12:17.180Z,59.06
2022-09-30T12:14:57.606Z,59.07
2022-09-30T12:17:39.239Z,58.75
2022-09-30T12:20:26.135Z,59.12
2022-09-30T12:23:01.084Z,59.35
2022-09-30T12:25:46.042Z,59.04
2022-09-30T12:28:53.703Z,58.02
2022-09-30T12:31:51.809Z,57.64
2022-09-30T12:34:21.153Z,58.13
2022-09-30T12:37:03.181Z,57.78
2022-09-30T12:40:08.371Z,56.81
2022-09-30T12:43:03.564Z,57.19
2022-09-30T12:46:01.416Z,56.18
2022-09-30T12:48:39.034Z,56.73
2022-09-30T12:51:07.486Z,56.94
2022-09-30T12:53:39.604Z,57.04
2022-09-30T12:56:14.451Z,56.86
2022-09-30T12:58:51.762Z,57.25
2022-09-30T13:01:25.799Z,57.28
2022-09-30T13:03:59.322Z,57.36
2022-09-30T13:06:48.139Z,56.00
2022-09-30T13:09:17.502Z,56.17
2022-09-30T13:12:12.315Z,55.96
2022-09-30T13:14:43.904Z,55.46
2022-09-30T13:17:10.250Z,55.17
2022-09-30T13:19:47.415Z,55.02
2022-09-30T13:22:29.614Z,55.62
2022-09-30T13:25:00.615Z,55.86
2022-09-30T13:27:38.997Z,55.51
2022-09-30T13:30:14.594Z,55.73
2022-09-30T13:33:06.812Z,56.25
2022-09-30T13:35:50.600Z,56.50
2022-09-30T13:38:34.376Z,55.70
2022-09-30T13:41:25.992Z,55.48
2022-09-30T13:44:21.200Z,55.82
2022-09-30T13:47:05.980Z,56.40
2022-09-30T13:50:00.469Z,56.63
2022-09-30T13:52:33.985Z,56.98
2022-09-30T13:55:50.034Z,57.14
2022-09-30T13:59:07.707Z,56.90
2022-09-30T14:01:38.708Z,57.37
2022-09-30T14:04:31.995Z,56.29
2022-09-30T14:07:23.096Z,56.02
2022-09-30T14:10:28.172Z,56.08
2022-09-30T14:13:28.230Z,54.68
2022-09-30T14:16:33.391Z,53.05
2022-09-30T14:19:22.789Z,54.31
2022-09-30T14:21:56.179Z,54.82
2022-09-30T14:24:33.863Z,53.56
2022-09-30T14:27:53.858Z,54.02
2022-09-30T14:30:26.307Z,54.72
2022-09-30T14:33:02.158Z,54.29
2022-09-30T14:35:33.619Z,54.56
2022-09-30T14:38:06.707Z,55.11
2022-09-30T14:40:40.055Z,54.99
2022-09-30T14:43:14.470Z,55.34
2022-09-30T14:45:46.872Z,55.91
2022-09-30T14:48:24.559Z,55.88
2022-09-30T14:50:57.606Z,55.39
2022-09-30T14:53:52.712Z,54.50
2022-09-30T14:56:30.577Z,55.11
2022-09-30T14:59:00.741Z,55.35
2022-09-30T15:01:35.474Z,54.84
2022-09-30T15:04:19.878Z,54.79
2022-09-30T15:06:52.860Z,55.36
2022-09-30T15:09:29.788Z,55.54
2022-09-30T15:11:58.923Z,55.84
2022-09-30T15:14:25.560Z,55.65
2022-09-30T15:16:56.080Z,55.57
2022-09-30T15:19:35.040Z,55.03
2022-09-30T15:22:06.431Z,55.73
2022-09-30T15:24:36.299Z,55.86
2022-09-30T15:27:04.810Z,56.18
2022-09-30T15:29:31.277Z,56.36
2022-09-30T15:32:22.099Z,56.28
2022-09-30T15:34:48.803Z,57.14
2022-09-30T15:37:26.067Z,56.66
2022-09-30T15:40:11.856Z,57.60
2022-09-30T15:42:47.596Z,57.27
2022-09-30T15:45:18.483Z,56.18
2022-09-30T15:47:58.883Z,56.14
2022-09-30T15:50:48.748Z,57.44
2022-09-30T15:53:25.659Z,57.23
2022-09-30T15:56:00.203Z,56.55
2022-09-30T15:58:26.666Z,57.00
2022-09-30T16:01:23.034Z,56.74
2022-09-30T16:04:02.616Z,56.94
2022-09-30T16:06:59.808Z,56.79
2022-09-30T16:09:35.688Z,57.32
2022-09-30T16:12:13.633Z,57.31
2022-09-30T16:14:50.138Z,57.55
2022-09-30T16:17:35.956Z,58.00
2022-09-30T16:20:20.196Z,58.64
2022-09-30T16:22:46.607Z,59.13
2022-09-30T16:25:33.519Z,59.50
2022-09-30T16:28:15.096Z,59.14
2022-09-30T16:30:46.939Z,59.32
2022-09-30T16:33:16.094Z,59.02
2022-09-30T16:35:44.157Z,59.33
2022-09-30T16:38:15.370Z,59.93
2022-09-30T16:40:41.837Z,59.93
2022-09-30T16:43:11.572Z,59.75
2022-09-30T16:45:39.770Z,60.11
2022-09-30T16:48:15.727Z,60.08
2022-09-30T16:50:50.190Z,59.54
2022-09-30T16:53:17.182Z,59.66
2022-09-30T16:55:44.799Z,59.88
2022-09-30T16:58:12.903Z,60.28
2022-09-30T17:00:45.179Z,60.01
2022-09-30T17:03:14.970Z,60.57
2022-09-30T17:05:44.477Z,59.91
2022-09-30T17:08:16.912Z,60.65
2022-09-30T17:10:50.023Z,60.96
2022-09-30T17:13:19.735Z,60.77
2022-09-30T17:15:52.476Z,61.30
2022-09-30T17:18:19.559Z,61.36
2022-09-30T17:20:53.005Z,61.26
2022-09-30T17:23:22.370Z,61.61
2022-09-30T17:25:49.519Z,61.94
2022-09-30T17:28:17.191Z,61.95
2022-09-30T17:30:47.703Z,61.57
2022-09-30T17:33:15.114Z,61.99
2022-09-30T17:35:41.592Z,61.93
2022-09-30T17:38:10.215Z,61.83
2022-09-30T17:40:55.928Z,62.50
2022-09-30T17:43:22.908Z,62.85
2022-09-30T17:45:50.688Z,63.30
2022-09-30T17:48:18.703Z,62.88
2022-09-30T17:50:48.269Z,62.52
2022-09-30T17:53:17.987Z,62.58
2022-09-30T17:55:47.912Z,63.08
2022-09-30T17:58:19.108Z,63.23
2022-09-30T18:00:47.020Z,63.56
2022-09-30T18:03:13.657Z,63.85
2022-09-30T18:05:40.173Z,63.85
2022-09-30T18:08:06.615Z,63.69
2022-09-30T18:10:37.845Z,63.67
2022-09-30T18:13:05.124Z,63.40
2022-09-30T18:15:31.756Z,64.00
2022-09-30T18:17:58.248Z,64.46
2022-09-30T18:20:25.601Z,64.43
2022-09-30T18:22:52.785Z,64.35
2022-09-30T18:25:23.114Z,64.14
2022-09-30T18:27:57.789Z,64.04
2022-09-30T18:30:25.584Z,64.12
2022-09-30T18:32:53.920Z,64.73
2022-09-30T18:35:24.154Z,64.49
2022-09-30T18:37:52.179Z,64.55
2022-09-30T18:40:22.953Z,64.46
2022-09-30T18:42:58.386Z,64.53
2022-09-30T18:45:27.038Z,64.99
2022-09-30T18:47:59.871Z,65.01
2022-09-30T18:50:29.370Z,64.93
2022-09-30T18:52:57.790Z,64.66
2022-09-30T18:55:24.982Z,64.54
2022-09-30T18:57:55.986Z,64.39
2022-09-30T19:00:22.546Z,64.70
2022-09-30T19:02:52.525Z,64.86
2022-09-30T19:05:19.502Z,65.34
2022-09-30T19:07:45.954Z,65.51
2022-09-30T19:10:13.104Z,66.07
2022-09-30T19:12:44.372Z,66.85
2022-09-30T19:15:17.058Z,67.53
2022-09-30T19:17:44.975Z,67.38
2022-09-30T19:20:15.014Z,67.45
2022-09-30T19:22:41.477Z,66.98
2022-09-30T19:25:11.552Z,66.41
2022-09-30T19:27:40.809Z,65.79
2022-09-30T19:30:11.142Z,66.02
2022-09-30T19:32:38.494Z,66.46
2022-09-30T19:35:11.917Z,66.97
2022-09-30T19:37:44.141Z,67.64
2022-09-30T19:40:21.784Z,67.92
2022-09-30T19:42:50.035Z,68.06
2022-09-30T19:45:19.382Z,68.32
2022-09-30T19:47:47.782Z,68.88
2022-09-30T19:50:14.572Z,69.08
2022-09-30T19:52:53.370Z,68.90
2022-09-30T19:55:21.904Z,69.30
2022-09-30T19:57:48.341Z,69.15
2022-09-30T20:00:14.886Z,69.04
2022-09-30T20:02:41.908Z,69.20
2022-09-30T20:05:09.104Z,68.43
2022-09-30T20:07:35.541Z,67.61
2022-09-30T20:10:02.235Z,68.07
2022-09-30T20:12:29.047Z,68.76
2022-09-30T20:15:14.295Z,68.91
2022-09-30T20:17:40.799Z,68.71
2022-09-30T20:20:26.727Z,68.13
2022-09-30T20:22:53.271Z,68.26
2022-09-30T20:25:20.170Z,67.61
2022-09-30T20:27:51.306Z,68.19
2022-09-30T20:30:19.165Z,67.63
2022-09-30T20:32:45.635Z,67.98
2022-09-30T20:35:12.325Z,67.40
2022-09-30T20:37:40.636Z,67.55
2022-09-30T20:40:09.362Z,68.21
2022-09-30T20:42:38.119Z,68.89
2022-09-30T20:45:10.642Z,68.19
2022-09-30T20:47:44.908Z,68.70
2022-09-30T20:50:12.770Z,69.32
2022-09-30T20:52:39.349Z,69.03
2022-09-30T20:55:06.548Z,69.52
2022-09-30T20:57:33.039Z,68.69
2022-09-30T20:59:59.976Z,69.08
2022-09-30T21:02:28.105Z,68.91
2022-09-30T21:04:57.479Z,68.72
2022-09-30T21:07:25.235Z,68.44
2022-09-30T21:09:52.322Z,68.03
2022-09-30T21:12:18.918Z,68.30
2022-09-30T21:14:45.738Z,68.00
2022-09-30T21:17:12.242Z,67.58
2022-09-30T21:19:38.702Z,67.52
2022-09-30T21:22:05.137Z,67.51
2022-09-30T21:24:31.612Z,67.17
2022-09-30T21:26:58.055Z,67.43
2022-09-30T21:29:24.576Z,66.74
2022-09-30T21:31:51.058Z,66.93
2022-09-30T21:34:17.577Z,66.83
2022-09-30T21:36:44.098Z,66.78
2022-09-30T21:39:11.537Z,66.98
2022-09-30T21:41:38.062Z,66.93
2022-09-30T21:44:04.574Z,66.80
2022-09-30T21:46:31.062Z,67.03
2022-09-30T21:49:18.674Z,67.65
2022-09-30T21:51:45.982Z,68.51
2022-09-30T21:54:13.960Z,68.33
2022-09-30T21:56:42.828Z,68.81
2022-09-30T21:59:10.464Z,68.19
2022-09-30T22:01:39.932Z,68.53
2022-09-30T22:04:07.458Z,68.38
2022-09-30T22:06:34.125Z,67.84
2022-09-30T22:09:01.825Z,67.96
2022-09-30T22:11:31.280Z,68.66
2022-09-30T22:14:00.357Z,67.91
2022-09-30T22:16:31.952Z,67.88
2022-09-30T22:19:01.618Z,68.57
2022-09-30T22:21:34.143Z,69.06
2022-09-30T22:24:03.399Z,68.78
2022-09-30T22:26:32.819Z,69.14
2022-09-30T22:29:10.801Z,68.94
2022-09-30T22:31:39.117Z,68.84
2022-09-30T22:34:29.206Z,68.17
2022-09-30T22:37:14.324Z,68.58
2022-09-30T22:39:40.787Z,68.28
2022-09-30T22:42:07.444Z,68.06
2022-09-30T22:44:36.815Z,68.15
2022-09-30T22:47:04.549Z,67.94
2022-09-30T22:49:34.907Z,67.97
2022-09-30T22:52:02.870Z,67.68
2022-09-30T22:54:30.838Z,67.90
2022-09-30T22:56:59.131Z,67.80
2022-09-30T22:59:27.119Z,67.17
2022-09-30T23:01:54.284Z,67.21
2022-09-30T23:04:22.046Z,67.48
2022-09-30T23:06:50.922Z,67.45
2022-09-30T23:09:18.863Z,67.77
2022-09-30T23:11:46.078Z,68.07
2022-09-30T23:14:13.315Z,67.90
2022-09-30T23:16:41.003Z,68.07
2022-09-30T23:19:07.627Z,68.13
2022-09-30T23:21:34.499Z,68.26
2022-09-30T23:24:01.871Z,68.09
2022-09-30T23:26:29.927Z,68.32
2022-09-30T23:28:59.243Z,68.07
2022-09-30T23:31:26.766Z,68.07
2022-09-30T23:33:56.809Z,68.45
2022-09-30T23:36:29.282Z,67.88
2022-09-30T23:39:03.070Z,69.00
2022-09-30T23:41:32.527Z,68.83
2022-09-30T23:43:59.481Z,69.22
2022-09-30T23:46:25.910Z,69.37
2022-09-30T23:48:52.441Z,68.88
2022-09-30T23:51:19.711Z,69.64
2022-09-30T23:53:46.823Z,69.26
2022-09-30T23:56:17.706Z,69.46
2022-09-30T23:58:45.626Z,69.72
